Time;durP1;ratioP1;P1;durP2;ratioP2;P2;SDS_P1;SDS_P2;PMS_P1;PMS_P2;Temp;Humidity;BMP_temperature;BMP_pressure;BME280_temperature;BME280_humidity;BME280_pressure;Samples;Min_cycle;Max_cycle;Signal;HPM_P1;HPM_P2
2021/03/12 00:03:27;;;;;;;7.45;2.58;;;7.40;99.90;;;;;;4974682;28;20022;-83
2021/03/12 00:06:22;;;;;;;5.95;3.03;;;7.30;99.90;;;;;;4971064;28;20051;-83
2021/03/12 00:10:09;;;;;;;5.57;2.50;;;7.30;99.90;;;;;;4962786;28;20027;-79
2021/03/12 00:12:40;;;;;;;6.90;2.92;;;7.30;99.90;;;;;;4969182;28;20091;-81
2021/03/12 00:16:01;;;;;;;3.38;2.47;;;7.30;99.90;;;;;;4949148;28;20054;-83
2021/03/12 00:18:46;;;;;;;5.63;2.75;;;7.40;99.90;;;;;;4874577;29;20096;-83
2021/03/12 00:27:21;;;;;;;4.00;2.25;;;7.40;99.90;;;;;;4322656;26;20043;-82
2021/03/12 00:31:10;;;;;;;3.83;2.30;;;7.50;99.90;;;;;;4978563;28;20055;-83
2021/03/12 00:34:04;;;;;;;4.50;2.65;;;7.40;99.90;;;;;;4982714;28;20028;-81
2021/03/12 00:37:29;;;;;;;5.47;2.60;;;7.40;99.90;;;;;;4980569;28;20023;-83
2021/03/12 00:40:30;;;;;;;7.80;2.90;;;7.40;99.90;;;;;;5092577;23;20038;-84
2021/03/12 00:43:03;;;;;;;3.97;2.08;;;7.40;99.90;;;;;;5001361;28;20042;-81
2021/03/12 00:45:39;;;;;;;4.50;2.28;;;7.30;99.90;;;;;;4986858;28;20044;-82
2021/03/12 00:51:19;;;;;;;4.63;2.10;;;7.50;99.90;;;;;;5019865;28;20076;-82
2021/03/12 00:53:47;;;;;;;3.60;2.15;;;7.40;99.90;;;;;;4986002;28;20021;-84
2021/03/12 00:56:20;;;;;;;3.97;2.30;;;7.00;99.90;;;;;;5318531;23;20051;-82
2021/03/12 00:58:58;;;;;;;4.65;2.45;;;7.50;99.90;;;;;;4993567;28;20027;-83
2021/03/12 01:01:28;;;;;;;5.88;1.95;;;7.50;99.90;;;;;;5002262;28;20042;-81
2021/03/12 01:04:20;;;;;;;5.28;2.10;;;7.50;99.90;;;;;;5003170;28;20042;-83
2021/03/12 01:07:19;;;;;;;4.28;1.88;;;7.50;99.90;;;;;;5074400;23;20062;-83
2021/03/12 01:09:53;;;;;;;3.20;1.90;;;7.50;99.90;;;;;;5061408;23;20067;-83
2021/03/12 01:12:31;;;;;;;4.35;1.90;;;7.60;99.90;;;;;;4990206;28;20054;-82
2021/03/12 01:22:49;;;;;;;4.40;2.45;;;7.50;99.90;;;;;;5775277;23;20049;-82
2021/03/12 01:25:24;;;;;;;4.25;3.20;;;6.90;99.90;;;;;;4992533;28;20046;-84
2021/03/12 01:27:58;;;;;;;3.78;2.08;;;7.20;99.90;;;;;;5020215;28;20041;-82
2021/03/12 01:44:10;;;;;;;5.20;2.00;;;;;;;;;;5263001;23;20063;-82
2021/03/12 01:47:21;;;;;;;5.13;2.10;;;7.10;99.90;;;;;;4950918;29;20083;-82
2021/03/12 01:50:04;;;;;;;2.97;2.00;;;7.10;99.90;;;;;;5170284;23;20135;-83
2021/03/12 01:52:54;;;;;;;4.00;2.15;;;7.10;99.90;;;;;;4987881;28;20066;-83
2021/03/12 01:55:36;;;;;;;5.63;2.78;;;7.10;99.90;;;;;;5007765;28;20071;-83
2021/03/12 02:01:03;;;;;;;4.97;2.13;;;7.20;99.90;;;;;;5120413;23;20108;-83
2021/03/12 02:03:40;;;;;;;4.53;2.33;;;7.20;99.90;;;;;;4995990;28;20040;-83
2021/03/12 02:06:40;;;;;;;4.57;2.20;;;7.40;99.90;;;;;;4980976;28;20015;-84
2021/03/12 02:25:36;;;;;;;3.90;1.73;;;6.70;99.90;;;;;;5351413;23;20046;-83
2021/03/12 02:28:20;;;;;;;3.15;1.67;;;6.70;99.90;;;;;;4992124;28;20038;-84
2021/03/12 02:31:20;;;;;;;4.85;2.17;;;6.60;99.90;;;;;;5096173;23;20056;-82
2021/03/12 02:33:54;;;;;;;5.40;2.58;;;6.50;99.90;;;;;;5009606;28;20085;-82
2021/03/12 02:36:51;;;;;;;3.80;1.80;;;6.50;99.90;;;;;;5026970;28;20041;-83
2021/03/12 02:50:30;;;;;;;3.15;1.90;;;5.80;99.90;;;;;;5600913;23;20046;-81
2021/03/12 02:53:12;;;;;;;5.95;2.13;;;6.20;99.90;;;;;;4997546;28;20043;-84
2021/03/12 02:59:46;;;;;;;4.35;2.22;;;6.10;99.90;;;;;;4926723;29;20056;-82
2021/03/12 03:02:28;;;;;;;4.70;1.92;;;6.10;99.90;;;;;;4921607;29;20036;-82
2021/03/12 03:07:56;;;;;;;4.57;2.10;;;5.40;99.90;;;;;;4998614;23;20047;-83
2021/03/12 03:10:50;;;;;;;7.55;2.00;;;6.00;99.90;;;;;;4952763;28;20047;-82
2021/03/12 03:14:15;;;;;;;3.25;1.55;;;6.00;99.90;;;;;;4957400;29;20114;-83
2021/03/12 03:53:19;;;;;;;3.65;1.38;;;6.00;99.90;;;;;;4973869;28;20029;-80
2021/03/12 03:55:49;;;;;;;3.88;1.80;;;6.00;99.90;;;;;;4978199;28;20085;-81
2021/03/12 03:58:18;;;;;;;2.40;2.20;;;6.00;99.90;;;;;;4972191;28;20051;-80
2021/03/12 04:00:53;;;;;;;3.30;1.52;;;7.90;99.90;;;;;;4978633;28;20043;-79
2021/03/12 04:03:23;;;;;;;3.78;1.70;;;6.00;99.90;;;;;;4980046;28;20037;-80
2021/03/12 04:05:53;;;;;;;3.50;1.20;;;6.00;99.90;;;;;;4982380;28;20057;-81
2021/03/12 04:08:19;;;;;;;3.55;1.60;;;;;;;;;;4961555;28;20022;-80
2021/03/12 04:10:45;;;;;;;3.60;1.63;;;;;;;;;;4981835;28;20043;-79
2021/03/12 04:13:12;;;;;;;2.17;1.13;;;6.10;99.90;;;;;;4959272;28;20167;-79
2021/03/12 04:15:39;;;;;;;3.72;1.40;;;6.10;99.90;;;;;;4972064;28;20051;-79
2021/03/12 04:18:09;;;;;;;4.00;1.60;;;7.30;99.90;;;;;;4951312;28;20026;-79
2021/03/12 04:20:48;;;;;;;;;;;;;;;;;;;;;
2021/03/12 04:23:14;;;;;;;6.78;1.50;;;;;;;;;;4950224;28;20078;-81
2021/03/12 04:25:41;;;;;;;3.22;1.90;;;;;;;;;;4972654;28;20043;-82
2021/03/12 04:28:08;;;;;;;2.65;1.40;;;;;;;;;;4976889;28;20057;-81
2021/03/12 04:30:35;;;;;;;4.97;1.60;;;;;;;;;;4954735;28;20054;-79
2021/03/12 04:33:02;;;;;;;3.40;1.40;;;6.00;99.90;;;;;;4972401;28;20030;-78
2021/03/12 04:35:29;;;;;;;4.35;1.60;;;4.40;99.90;;;;;;4952043;28;20399;-79
2021/03/12 04:37:56;;;;;;;3.13;1.60;;;6.00;99.90;;;;;;4973815;28;20082;-79
2021/03/12 04:40:22;;;;;;;5.22;1.67;;;;;;;;;;4961529;28;20047;-79
2021/03/12 04:42:50;;;;;;;2.78;1.15;;;6.00;99.90;;;;;;4966793;28;20025;-80
2021/03/12 04:45:19;;;;;;;149.10;85.82;;;6.00;99.90;;;;;;4975478;28;20042;-81
2021/03/12 04:47:45;;;;;;;82.60;43.90;;;;;;;;;;4977992;28;20038;-78
2021/03/12 04:50:12;;;;;;;29.08;15.80;;;6.10;99.90;;;;;;4960279;28;20041;-79
2021/03/12 04:52:38;;;;;;;4.95;2.38;;;6.20;99.90;;;;;;4956977;29;20023;-79
2021/03/12 04:55:07;;;;;;;7.95;1.67;;;6.10;99.90;;;;;;4975778;28;20133;-79
2021/03/12 04:57:39;;;;;;;3.70;2.17;;;6.00;99.90;;;;;;4939568;28;20285;-81
2021/03/12 05:00:09;;;;;;;5.15;2.55;;;6.10;99.90;;;;;;4974168;28;20539;-79
2021/03/12 05:02:35;;;;;;;4.95;2.70;;;6.10;99.90;;;;;;4944621;28;20047;-80
2021/03/12 05:05:07;;;;;;;2.60;1.80;;;6.10;99.90;;;;;;4972114;28;20105;-80
2021/03/12 05:07:36;;;;;;;2.88;1.42;;;6.10;99.90;;;;;;4970106;28;20089;-79
2021/03/12 05:10:04;;;;;;;4.15;1.60;;;6.10;99.90;;;;;;4971292;28;20043;-79
2021/03/12 05:12:30;;;;;;;3.90;1.60;;;;;;;;;;4972928;28;20030;-79
2021/03/12 05:14:56;;;;;;;5.30;2.63;;;;;;;;;;4969571;28;20038;-78
2021/03/12 05:17:22;;;;;;;3.53;2.05;;;6.00;99.90;;;;;;4971649;28;20082;-79
2021/03/12 05:19:49;;;;;;;4.90;2.47;;;;;;;;;;4967126;28;20031;-79
2021/03/12 05:22:15;;;;;;;5.45;2.75;;;;;;;;;;4971605;28;20082;-78
2021/03/12 05:24:42;;;;;;;3.97;2.10;;;;;;;;;;4971188;28;20050;-80
2021/03/12 05:27:12;;;;;;;4.82;2.33;;;5.90;99.90;;;;;;4953348;28;20054;-80
2021/03/12 05:29:38;;;;;;;4.55;2.30;;;;;;;;;;4934773;28;20039;-79
2021/03/12 05:32:07;;;;;;;4.78;2.33;;;5.90;99.90;;;;;;4979014;28;20057;-81
2021/03/12 05:34:36;;;;;;;3.88;2.40;;;;;;;;;;4976213;28;20036;-80
2021/03/12 05:37:05;;;;;;;6.75;2.60;;;6.00;99.90;;;;;;4961333;28;20091;-81
2021/03/12 05:39:39;;;;;;;6.63;3.28;;;;;;;;;;4976695;28;20030;-81
2021/03/12 05:42:07;;;;;;;4.57;2.58;;;6.00;99.90;;;;;;4970855;28;20087;-80
2021/03/12 05:44:38;;;;;;;4.20;2.97;;;6.00;99.90;;;;;;4976362;28;20130;-81
2021/03/12 05:47:16;;;;;;;6.70;3.28;;;7.90;99.90;;;;;;4973172;28;20050;-82
2021/03/12 05:50:00;;;;;;;7.10;3.17;;;6.00;99.90;;;;;;4961445;28;20051;-81
2021/03/12 05:52:26;;;;;;;7.45;3.92;;;;;;;;;;4987142;28;20054;-79
2021/03/12 05:54:59;;;;;;;8.30;3.47;;;6.10;99.90;;;;;;4998566;28;20094;-80
2021/03/12 05:57:26;;;;;;;7.85;3.05;;;;;;;;;;4981049;28;20141;-80
2021/03/12 06:00:03;;;;;;;5.07;3.03;;;6.10;99.90;;;;;;4980258;28;20280;-80
2021/03/12 06:02:49;;;;;;;6.03;3.45;;;;;;;;;;5001293;28;20094;-81
2021/03/12 06:05:16;;;;;;;6.20;2.92;;;;;;;;;;4984873;28;20080;-80
2021/03/12 06:07:42;;;;;;;3.38;2.55;;;;;;;;;;4982125;28;20030;-80
2021/03/12 06:10:09;;;;;;;4.07;3.13;;;10.00;99.90;;;;;;5006559;28;20062;-80
2021/03/12 06:12:47;;;;;;;6.07;2.90;;;6.10;99.90;;;;;;5001106;28;20006;-80
2021/03/12 06:15:17;;;;;;;3.70;2.45;;;4.50;99.90;;;;;;4960748;28;20122;-81
2021/03/12 06:17:48;;;;;;;4.88;2.40;;;6.20;99.90;;;;;;4986843;28;20027;-81
2021/03/12 06:20:21;;;;;;;4.53;2.40;;;6.00;99.90;;;;;;5003441;28;20033;-73
2021/03/12 06:23:11;;;;;;;5.25;2.90;;;6.10;99.90;;;;;;4967970;28;20290;-82
2021/03/12 06:26:01;;;;;;;5.15;3.33;;;6.10;99.90;;;;;;4981889;28;20061;-80
2021/03/12 06:28:31;;;;;;;4.43;2.40;;;6.10;99.90;;;;;;4972200;28;20033;-81
2021/03/12 06:31:00;;;;;;;3.88;2.47;;;6.10;99.90;;;;;;4985986;28;20537;-81
2021/03/12 06:33:52;;;;;;;4.63;2.85;;;6.10;99.90;;;;;;5005523;28;20026;-81
2021/03/12 06:36:35;;;;;;;4.03;2.70;;;6.20;99.90;;;;;;4982140;28;20042;-81
2021/03/12 06:39:37;;;;;;;5.03;2.72;;;6.30;99.90;;;;;;5001499;28;20110;-82
2021/03/12 06:42:31;;;;;;;4.47;3.08;;;6.20;99.90;;;;;;4980947;28;20015;-81
2021/03/12 06:45:20;;;;;;;7.07;4.47;;;6.10;99.90;;;;;;4987126;28;20054;-81
2021/03/12 06:47:46;;;;;;;5.15;3.58;;;;;;;;;;4946031;28;20091;-80
2021/03/12 06:50:15;;;;;;;5.72;3.00;;;;;;;;;;5005761;28;20027;-82
2021/03/12 06:52:45;;;;;;;8.00;3.92;;;6.20;99.90;;;;;;5003634;28;20061;-79
2021/03/12 06:55:13;;;;;;;6.38;4.05;;;6.20;99.90;;;;;;5002147;28;20038;-80
2021/03/12 06:57:40;;;;;;;6.93;4.22;;;;;;;;;;4984135;28;20077;-78
2021/03/12 07:00:08;;;;;;;10.90;4.35;;;6.20;99.90;;;;;;4997231;28;20030;-79
2021/03/12 07:02:35;;;;;;;6.90;4.40;;;6.10;99.90;;;;;;4997811;28;20038;-80
2021/03/12 07:05:02;;;;;;;8.65;4.82;;;6.10;99.90;;;;;;4969751;28;20043;-80
2021/03/12 07:07:35;;;;;;;6.22;3.78;;;6.10;99.90;;;;;;4991892;28;20026;-80
2021/03/12 07:10:03;;;;;;;9.93;4.70;;;6.10;99.90;;;;;;4989995;28;20035;-79
2021/03/12 07:12:50;;;;;;;7.47;3.97;;;6.30;99.90;;;;;;4998716;28;20027;-80
2021/03/12 07:15:18;;;;;;;7.32;5.22;;;6.40;99.90;;;;;;4979718;28;20065;-79
2021/03/12 07:17:44;;;;;;;8.55;4.43;;;6.50;99.90;;;;;;4972811;28;20057;-80
2021/03/12 07:20:13;;;;;;;10.32;4.68;;;6.60;99.90;;;;;;4985515;28;20051;-82
2021/03/12 07:22:39;;;;;;;13.68;9.85;;;;;;;;;;4961851;28;20027;-80
2021/03/12 07:25:10;;;;;;;7.18;4.95;;;6.70;99.90;;;;;;4985346;28;20062;-81
2021/03/12 07:27:40;;;;;;;6.13;4.15;;;7.00;99.90;;;;;;4982928;28;20062;-82
2021/03/12 07:30:09;;;;;;;5.07;3.97;;;6.90;99.90;;;;;;4973314;28;20038;-80
2021/03/12 07:32:37;;;;;;;6.72;4.53;;;7.00;99.90;;;;;;4984572;28;20038;-80
2021/03/12 07:35:06;;;;;;;7.28;4.70;;;6.50;99.90;;;;;;4969304;28;20459;-81
2021/03/12 07:37:38;;;;;;;7.03;4.13;;;7.00;99.90;;;;;;4979704;28;20042;-80
2021/03/12 07:40:14;;;;;;;7.90;4.45;;;7.10;99.90;;;;;;4947426;28;20026;-82
2021/03/12 07:43:04;;;;;;;7.22;4.63;;;7.10;99.90;;;;;;4957952;28;20031;-81
2021/03/12 07:45:34;;;;;;;7.40;5.18;;;7.10;99.90;;;;;;4974681;28;20026;-81
2021/03/12 07:48:02;;;;;;;6.97;4.72;;;;;;;;;;4984691;28;20079;-81
2021/03/12 07:50:35;;;;;;;10.00;5.28;;;7.10;99.90;;;;;;4980203;28;20035;-80
2021/03/12 07:53:02;;;;;;;6.55;3.92;;;;;;;;;;4952987;28;20066;-82
2021/03/12 07:55:40;;;;;;;8.80;5.10;;;7.10;99.90;;;;;;4985346;28;20030;-79
2021/03/12 07:58:35;;;;;;;8.65;4.72;;;7.10;99.90;;;;;;4984857;28;20030;-82
2021/03/12 08:01:02;;;;;;;6.32;4.68;;;;;;;;;;4981386;28;20054;-80
2021/03/12 08:03:42;;;;;;;6.18;4.30;;;7.00;99.90;;;;;;4986700;28;20277;-82
2021/03/12 08:06:33;;;;;;;8.95;4.88;;;7.00;99.90;;;;;;4984729;28;20042;-81
2021/03/12 08:12:50;;;;;;;9.80;4.97;;;7.50;99.90;;;;;;4976274;28;20058;-81
2021/03/12 08:15:31;;;;;;;8.07;4.47;;;7.10;99.90;;;;;;4973032;28;20073;-81
2021/03/12 08:18:15;;;;;;;6.82;4.45;;;7.10;99.90;;;;;;4993533;28;20026;-80
2021/03/12 08:20:44;;;;;;;5.68;4.00;;;;;;;;;;4989424;28;20039;-80
2021/03/12 08:23:44;;;;;;;10.25;5.43;;;7.10;99.90;;;;;;4997139;28;20054;-82
2021/03/12 08:26:56;;;;;;;6.60;4.57;;;7.50;99.90;;;;;;4976484;28;20050;-80
2021/03/12 08:29:49;;;;;;;5.70;4.10;;;7.50;99.90;;;;;;4983978;28;20035;-82
2021/03/12 08:32:50;;;;;;;6.40;4.53;;;7.50;99.90;;;;;;4959560;28;20108;-81
2021/03/12 08:35:38;;;;;;;6.13;4.22;;;7.70;99.90;;;;;;4952586;28;20047;-80
2021/03/12 08:38:44;;;;;;;9.82;4.70;;;7.50;99.90;;;;;;4999180;28;20045;-80
2021/03/12 08:41:18;;;;;;;5.47;4.13;;;7.60;99.90;;;;;;4971332;28;20046;-81
2021/03/12 08:43:51;;;;;;;5.32;4.03;;;7.50;99.90;;;;;;4992906;28;20072;-79
2021/03/12 08:46:24;;;;;;;6.72;4.00;;;7.50;99.90;;;;;;4980625;28;20026;-80
2021/03/12 08:49:00;;;;;;;7.40;3.97;;;7.60;99.90;;;;;;4985618;28;20051;-82
2021/03/12 08:51:39;;;;;;;7.95;4.45;;;7.50;99.90;;;;;;4968247;28;20031;-81
2021/03/12 08:54:05;;;;;;;8.27;4.47;;;;;;;;;;4968234;28;20035;-78
2021/03/12 08:56:33;;;;;;;6.82;3.95;;;7.80;99.90;;;;;;4967034;28;20043;-78
2021/03/12 08:59:00;;;;;;;8.10;3.78;;;8.60;99.90;;;;;;4944279;28;20570;-77
2021/03/12 09:01:29;;;;;;;7.57;3.78;;;7.90;99.90;;;;;;4927028;28;20039;-78
2021/03/12 09:03:58;;;;;;;7.68;3.72;;;7.80;99.90;;;;;;4957654;28;20036;-76
2021/03/12 09:06:37;;;;;;;8.55;4.72;;;8.10;99.90;;;;;;4947471;28;20043;-77
2021/03/12 09:09:05;;;;;;;6.63;4.13;;;7.80;99.90;;;;;;4953355;28;20043;-81
2021/03/12 09:11:31;;;;;;;7.03;3.92;;;7.80;99.90;;;;;;4956032;28;20078;-77
2021/03/12 09:14:00;;;;;;;6.63;3.75;;;7.70;99.90;;;;;;4938440;28;20031;-79
2021/03/12 09:19:57;;;;;;;284.90;186.20;;;7.50;99.90;;;;;;5057537;23;20061;-82
2021/03/12 09:22:22;;;;;;;10.90;7.65;;;7.70;99.90;;;;;;5007837;23;21076;-79
2021/03/12 09:24:53;;;;;;;7.60;4.30;;;7.70;99.90;;;;;;4955913;28;20055;-82
2021/03/12 09:27:22;;;;;;;6.70;4.83;;;7.70;99.90;;;;;;4950619;28;20035;-78
2021/03/12 09:29:48;;;;;;;6.68;3.97;;;7.80;99.90;;;;;;4943961;28;20605;-76
2021/03/12 09:32:14;;;;;;;7.63;4.50;;;7.90;99.90;;;;;;4949580;28;20107;-75
2021/03/12 09:34:39;;;;;;;12.07;7.55;;;8.20;99.90;;;;;;4951301;28;20483;-77
2021/03/12 09:37:05;;;;;;;9.30;4.65;;;8.50;99.90;;;;;;4952232;28;20028;-78
2021/03/12 09:39:31;;;;;;;7.72;4.30;;;8.80;99.90;;;;;;4956619;28;20841;-78
2021/03/12 09:42:04;;;;;;;5.22;4.05;;;9.20;99.90;;;;;;4937438;28;20670;-76
2021/03/12 09:44:31;;;;;;;5.18;3.80;;;9.40;99.90;;;;;;4961098;28;20050;-78
2021/03/12 09:47:05;;;;;;;9.90;5.57;;;9.60;99.90;;;;;;4954987;28;20077;-77
2021/03/12 09:49:42;;;;;;;4.50;3.13;;;9.90;99.90;;;;;;4959743;28;20028;-76
2021/03/12 09:52:16;;;;;;;10.10;4.45;;;9.90;99.90;;;;;;4955856;28;20039;-77
2021/03/12 09:54:49;;;;;;;6.90;3.95;;;9.90;99.90;;;;;;4942996;28;20098;-77
2021/03/12 09:57:19;;;;;;;6.35;4.03;;;9.80;99.90;;;;;;4959543;28;20148;-77
2021/03/12 09:59:50;;;;;;;5.68;4.07;;;9.60;99.90;;;;;;4964680;28;20038;-77
2021/03/12 10:02:16;;;;;;;10.68;3.97;;;9.50;99.90;;;;;;4961871;28;20025;-78
2021/03/12 10:04:56;;;;;;;6.15;3.95;;;9.60;99.90;;;;;;4961534;28;20133;-78
2021/03/12 10:07:22;;;;;;;4.97;3.22;;;9.90;99.80;;;;;;4967280;28;20098;-77
2021/03/12 10:09:49;;;;;;;9.00;3.53;;;10.80;95.40;;;;;;4966985;28;20038;-76
2021/03/12 10:12:23;;;;;;;18.55;3.97;;;11.30;91.30;;;;;;4962862;28;20038;-76
2021/03/12 10:14:51;;;;;;;6.97;3.25;;;11.10;90.50;;;;;;4959435;28;20039;-77
2021/03/12 10:17:25;;;;;;;7.10;5.35;;;10.90;91.00;;;;;;4954939;28;20034;-77
2021/03/12 10:20:04;;;;;;;8.88;4.10;;;10.70;89.80;;;;;;4953815;28;20091;-76
2021/03/12 10:22:43;;;;;;;5.57;3.00;;;10.40;94.00;;;;;;4951101;28;20066;-75
2021/03/12 10:25:14;;;;;;;5.38;2.88;;;10.10;95.20;;;;;;4939083;28;20057;-75
2021/03/12 10:27:46;;;;;;;8.25;2.95;;;10.10;95.80;;;;;;4938665;28;20443;-76
2021/03/12 10:30:18;;;;;;;5.63;2.90;;;10.00;96.60;;;;;;4950967;28;20043;-77
2021/03/12 10:32:50;;;;;;;5.10;2.88;;;9.90;95.30;;;;;;4936871;28;20042;-76
2021/03/12 10:35:43;;;;;;;4.85;3.00;;;9.70;95.30;;;;;;4941294;28;20039;-76
2021/03/12 10:38:18;;;;;;;5.40;2.47;;;9.50;97.20;;;;;;4959107;28;20050;-76
2021/03/12 10:40:46;;;;;;;5.88;3.22;;;9.40;98.00;;;;;;4967269;28;20019;-81
2021/03/12 10:43:18;;;;;;;5.55;2.60;;;;;;;;;;4969999;28;20031;-78
2021/03/12 10:46:17;;;;;;;7.45;2.80;;;10.60;88.50;;;;;;4963744;28;20050;-77
2021/03/12 10:52:36;;;;;;;5.13;2.53;;;;;;;;;;4955857;28;20368;-79
2021/03/12 10:55:11;;;;;;;4.88;2.40;;;;;;;;;;4962623;28;20027;-79
2021/03/12 10:57:41;;;;;;;5.47;2.60;;;10.40;79.70;;;;;;4957833;28;20019;-79
2021/03/12 11:00:20;;;;;;;10.02;3.05;;;10.30;81.10;;;;;;4964322;28;20028;-79
2021/03/12 11:02:46;;;;;;;7.32;2.63;;;10.40;80.80;;;;;;4973080;28;20062;-81
2021/03/12 11:05:16;;;;;;;8.15;3.58;;;10.40;81.60;;;;;;4972878;28;20074;-80
2021/03/12 11:07:43;;;;;;;10.65;4.13;;;;;;;;;;4965982;28;20059;-81
2021/03/12 11:10:10;;;;;;;5.35;3.38;;;10.30;86.10;;;;;;4971801;28;20035;-78
2021/03/12 11:12:45;;;;;;;8.32;4.25;;;10.70;81.90;;;;;;4969941;28;20103;-79
2021/03/12 11:15:13;;;;;;;8.07;3.22;;;11.20;72.20;;;;;;4967579;28;20045;-79
2021/03/12 11:17:48;;;;;;;8.15;2.47;;;;;;;;;;4950030;28;20033;-79
2021/03/12 11:20:21;;;;;;;7.45;2.80;;;11.20;64.50;;;;;;4959493;28;20039;-81
2021/03/12 11:22:49;;;;;;;5.38;3.00;;;11.20;64.00;;;;;;4948211;28;20131;-79
2021/03/12 11:25:17;;;;;;;5.22;3.13;;;;;;;;;;4932095;29;20048;-79
2021/03/12 11:28:08;;;;;;;6.25;3.70;;;12.50;63.90;;;;;;4944026;29;20031;-79
2021/03/12 11:30:38;;;;;;;7.03;3.30;;;12.50;61.60;;;;;;4933895;28;20050;-78
2021/03/12 11:33:03;;;;;;;4.90;3.05;;;12.50;61.60;;;;;;4927466;29;20028;-77
2021/03/12 11:35:32;;;;;;;6.45;4.10;;;12.40;61.70;;;;;;4925513;29;20038;-77
2021/03/12 11:38:04;;;;;;;8.68;3.30;;;12.30;62.40;;;;;;4928651;28;20019;-79
2021/03/12 11:40:30;;;;;;;5.82;3.33;;;;;;;;;;4932338;28;20031;-79
2021/03/12 11:42:56;;;;;;;4.57;3.72;;;;;;;;;;4928331;28;20035;-79
2021/03/12 11:45:22;;;;;;;7.00;4.50;;;12.40;59.20;;;;;;4930961;29;20259;-78
2021/03/12 11:47:50;;;;;;;5.22;3.83;;;13.70;56.30;;;;;;4933353;29;20039;-79
2021/03/12 11:50:19;;;;;;;7.40;3.63;;;13.80;54.90;;;;;;4937117;29;20036;-80
2021/03/12 11:52:46;;;;;;;6.57;4.82;;;13.80;55.10;;;;;;4924610;29;20039;-80
2021/03/12 11:55:12;;;;;;;8.35;6.07;;;13.50;55.10;;;;;;4938273;28;20321;-78
2021/03/12 11:57:41;;;;;;;7.13;3.88;;;12.70;56.10;;;;;;4948232;29;20033;-79
2021/03/12 12:00:09;;;;;;;6.38;4.40;;;12.80;56.10;;;;;;4940301;28;20032;-78
2021/03/12 12:02:35;;;;;;;5.85;3.30;;;12.80;55.70;;;;;;4939133;29;20066;-79
2021/03/12 12:05:02;;;;;;;7.90;5.72;;;12.80;56.30;;;;;;4942681;29;20147;-77
2021/03/12 12:07:28;;;;;;;6.57;3.55;;;12.60;56.60;;;;;;4935263;28;20159;-76
2021/03/12 12:09:57;;;;;;;4.47;3.10;;;13.00;55.20;;;;;;4937409;28;20032;-77
2021/03/12 12:12:32;;;;;;;5.15;3.30;;;13.10;53.80;;;;;;4933734;28;20055;-78
2021/03/12 12:14:58;;;;;;;5.10;3.42;;;13.30;54.10;;;;;;4937043;28;20047;-76
2021/03/12 12:17:44;;;;;;;5.65;4.25;;;14.10;52.70;;;;;;4922638;29;20059;-80
2021/03/12 12:20:12;;;;;;;5.68;3.60;;;13.80;52.30;;;;;;4942074;28;20043;-78
2021/03/12 12:22:42;;;;;;;6.20;3.78;;;;;;;;;;4955557;28;20507;-77
2021/03/12 12:25:09;;;;;;;4.38;3.03;;;14.50;51.60;;;;;;4964524;28;20066;-78
2021/03/12 12:27:34;;;;;;;4.13;3.03;;;14.50;50.70;;;;;;4966914;28;20023;-77
2021/03/12 12:30:05;;;;;;;4.35;3.17;;;13.20;52.10;;;;;;4963629;28;20054;-78
2021/03/12 12:32:47;;;;;;;4.43;2.77;;;13.10;52.90;;;;;;4961227;28;20046;-80
2021/03/12 12:35:13;;;;;;;43.63;27.77;;;13.60;53.60;;;;;;4963801;28;20054;-80
2021/03/12 12:37:55;;;;;;;9.45;5.38;;;14.10;51.40;;;;;;4977376;28;20019;-78
2021/03/12 12:40:24;;;;;;;7.45;5.70;;;;;;;;;;4983483;28;20027;-81
2021/03/12 12:42:49;;;;;;;4.30;3.00;;;14.30;49.00;;;;;;4950296;28;20066;-79
2021/03/12 12:45:16;;;;;;;5.70;2.88;;;14.00;51.20;;;;;;4959096;28;20839;-77
2021/03/12 12:47:42;;;;;;;9.77;3.78;;;14.60;49.90;;;;;;4957427;28;20031;-79
2021/03/12 12:50:08;;;;;;;4.80;3.03;;;14.00;50.40;;;;;;4956130;28;20039;-78
2021/03/12 12:52:37;;;;;;;5.65;3.13;;;12.90;51.60;;;;;;4927314;28;20024;-79
2021/03/12 12:55:04;;;;;;;6.72;3.03;;;12.90;51.60;;;;;;4946692;28;20046;-77
2021/03/12 12:57:39;;;;;;;5.95;3.30;;;12.40;52.80;;;;;;4959729;28;20047;-77
2021/03/12 13:00:12;;;;;;;8.98;4.30;;;11.70;54.80;;;;;;4959370;28;20059;-77
2021/03/12 13:02:37;;;;;;;9.18;3.50;;;12.60;54.10;;;;;;4960579;28;20452;-77
2021/03/12 13:05:04;;;;;;;4.78;2.58;;;12.70;54.60;;;;;;4956922;28;20039;-77
2021/03/12 13:07:30;;;;;;;4.70;2.70;;;13.10;51.40;;;;;;4957968;28;20029;-77
2021/03/12 13:10:17;;;;;;;4.35;2.83;;;12.80;51.60;;;;;;4949022;28;20061;-78
2021/03/12 13:12:42;;;;;;;6.65;2.40;;;12.60;52.10;;;;;;4958745;28;20086;-76
2021/03/12 13:15:09;;;;;;;5.93;3.10;;;12.50;52.60;;;;;;4962292;28;20399;-79
2021/03/12 13:17:34;;;;;;;4.32;3.03;;;12.00;52.00;;;;;;4957692;28;20061;-78
2021/03/12 13:20:04;;;;;;;5.80;2.85;;;;;;;;;;4958628;28;20567;-77
2021/03/12 13:22:50;;;;;;;8.93;2.90;;;12.60;52.00;;;;;;4960194;28;20101;-77
2021/03/12 13:25:17;;;;;;;5.80;2.20;;;;;;;;;;4958031;28;20066;-76
2021/03/12 13:27:44;;;;;;;4.45;2.72;;;13.10;50.70;;;;;;4959447;28;20742;-77
2021/03/12 13:30:20;;;;;;;3.05;2.63;;;13.40;49.50;;;;;;4960403;28;20103;-78
2021/03/12 13:32:52;;;;;;;4.88;3.17;;;;;;;;;;4961573;28;20038;-77
2021/03/12 13:35:20;;;;;;;3.83;2.15;;;13.10;49.80;;;;;;4960858;28;20051;-76
2021/03/12 13:37:46;;;;;;;4.20;2.47;;;13.60;49.60;;;;;;4961728;28;20042;-77
2021/03/12 13:40:15;;;;;;;6.50;2.90;;;13.60;48.30;;;;;;4960645;28;20039;-77
2021/03/12 13:42:41;;;;;;;4.03;1.83;;;;;;;;;;4964759;28;20068;-77
2021/03/12 13:45:08;;;;;;;4.93;3.17;;;14.30;47.80;;;;;;4962634;28;20070;-75
2021/03/12 13:47:34;;;;;;;4.40;2.22;;;13.50;48.40;;;;;;4964482;28;20065;-76
2021/03/12 13:50:00;;;;;;;4.50;2.00;;;13.10;49.80;;;;;;4965708;28;20434;-76
2021/03/12 13:52:26;;;;;;;4.82;3.03;;;13.10;50.30;;;;;;4943787;28;20122;-76
2021/03/12 13:54:55;;;;;;;2.40;1.58;;;13.30;49.60;;;;;;4952143;28;20038;-76
2021/03/12 13:57:20;;;;;;;6.45;2.35;;;13.60;48.60;;;;;;4941510;28;20023;-77
2021/03/12 13:59:47;;;;;;;7.72;2.20;;;;;;;;;;4941335;28;20872;-77
2021/03/12 14:02:12;;;;;;;3.53;2.05;;;13.90;48.10;;;;;;4947730;28;20035;-76
2021/03/12 14:04:38;;;;;;;5.93;2.35;;;14.20;48.20;;;;;;4961172;28;20093;-76
2021/03/12 14:07:04;;;;;;;3.53;2.15;;;14.40;47.60;;;;;;4960402;28;20101;-76
2021/03/12 14:09:32;;;;;;;4.13;2.40;;;14.40;46.40;;;;;;4960185;28;20119;-76
2021/03/12 14:11:58;;;;;;;6.47;2.08;;;14.00;46.90;;;;;;4958961;28;20031;-77
2021/03/12 14:14:24;;;;;;;3.65;1.80;;;13.10;48.10;;;;;;4955468;28;20023;-76
2021/03/12 14:16:52;;;;;;;3.90;1.88;;;13.10;48.60;;;;;;4957520;28;20498;-74
2021/03/12 14:19:18;;;;;;;3.63;1.98;;;12.90;49.40;;;;;;4957799;28;20062;-75
2021/03/12 14:21:44;;;;;;;25.67;18.63;;;12.50;49.70;;;;;;4960914;28;20051;-76
2021/03/12 14:24:20;;;;;;;5.82;2.60;;;12.40;51.20;;;;;;4958522;28;20047;-78
2021/03/12 14:26:46;;;;;;;3.55;2.20;;;12.30;51.00;;;;;;4963475;28;20487;-76
2021/03/12 14:29:13;;;;;;;5.55;1.90;;;12.30;51.50;;;;;;4957435;28;20034;-75
2021/03/12 14:31:48;;;;;;;4.40;2.45;;;11.70;52.90;;;;;;4955729;28;20027;-77
2021/03/12 14:34:14;;;;;;;4.47;2.13;;;;;;;;;;4942582;28;20050;-78
2021/03/12 14:36:40;;;;;;;6.80;3.50;;;;;;;;;;4955738;28;20118;-77
2021/03/12 14:39:07;;;;;;;2.63;1.80;;;11.80;51.30;;;;;;4953825;28;20037;-77
2021/03/12 14:41:34;;;;;;;3.75;1.80;;;;;;;;;;4958547;28;20565;-77
2021/03/12 14:44:00;;;;;;;3.90;1.67;;;;;;;;;;4956991;28;20051;-76
2021/03/12 14:46:25;;;;;;;3.50;2.00;;;11.60;51.20;;;;;;4954880;28;20070;-76
2021/03/12 14:48:51;;;;;;;9.25;4.88;;;11.60;51.40;;;;;;4955128;28;20082;-76
2021/03/12 14:51:18;;;;;;;9.88;4.10;;;11.60;52.30;;;;;;4955552;28;20028;-77
2021/03/12 14:53:44;;;;;;;5.70;2.83;;;11.70;52.50;;;;;;4954547;28;20031;-74
2021/03/12 14:56:10;;;;;;;4.65;2.20;;;11.80;52.00;;;;;;4952913;28;20146;-76
2021/03/12 14:58:36;;;;;;;5.32;2.53;;;11.70;51.80;;;;;;4949653;28;20063;-75
2021/03/12 15:01:05;;;;;;;3.97;2.03;;;11.60;51.80;;;;;;4956172;28;20062;-75
2021/03/12 15:03:31;;;;;;;4.43;2.20;;;11.60;52.00;;;;;;4952975;28;20797;-74
2021/03/12 15:06:00;;;;;;;4.05;2.20;;;11.50;51.60;;;;;;4950643;28;20066;-74
2021/03/12 15:08:29;;;;;;;5.20;2.60;;;11.40;52.50;;;;;;4958124;28;20027;-75
2021/03/12 15:10:55;;;;;;;4.78;2.30;;;11.30;52.90;;;;;;4962883;28;20054;-77
2021/03/12 15:13:26;;;;;;;7.97;3.05;;;11.20;52.70;;;;;;4956168;28;20069;-77
2021/03/12 15:15:53;;;;;;;5.10;2.90;;;11.10;53.10;;;;;;4941106;28;20038;-77
2021/03/12 15:18:19;;;;;;;9.13;3.20;;;11.10;53.20;;;;;;4958261;28;20130;-76
2021/03/12 15:20:52;;;;;;;8.18;2.35;;;11.10;53.00;;;;;;4962434;28;20023;-77
2021/03/12 15:23:17;;;;;;;7.13;2.55;;;11.00;53.00;;;;;;4950257;28;20055;-77
2021/03/12 15:25:46;;;;;;;4.35;1.92;;;10.90;52.90;;;;;;4937419;28;20034;-77
2021/03/12 15:28:13;;;;;;;5.50;2.33;;;10.90;53.20;;;;;;4958156;28;20070;-78
2021/03/12 15:30:38;;;;;;;6.30;2.90;;;10.80;53.20;;;;;;4959958;28;20063;-75
2021/03/12 15:33:10;;;;;;;15.90;5.38;;;11.20;53.30;;;;;;4959093;28;20037;-77
2021/03/12 15:35:40;;;;;;;;;;;11.20;54.00;;;;;;4959221;28;20087;-78
2021/03/12 15:38:15;;;;;;;3.22;1.80;;;11.10;53.30;;;;;;4940368;28;19982;-76